Swanage, United Kingdom
Current Conditions -  °F | °C
As of 8:50 PM on Saturday 25 Oct 2014 (Local Time) from EGHH Reporting Station
Broken Clouds Broken Clouds  
Wind Chill: 55°   Ceiling: 4000
Heat Index: 55°   Visibility: 6mi
Dew Point: 48°   Wind: 7mph
Humidity: 77%   Direction: 250°WSW
Pressure: 30.15"   Gusts: NA
Location:  50.61°N, 1.96°W
Report Text: EGHH 251950Z 25006KT 9999 BKN040 13/09 Q1021
Loading
Personal Weather Stations






























Interactive Weather Map
Tropical Storm Tracking
New forecast layout! Learn more

10-Day Weather Forecast

Advertisements
Track Severe Weather on mobile